Time;durP1;ratioP1;P1;durP2;ratioP2;P2;SDS_P1;SDS_P2;PMS_P1;PMS_P2;Temp;Humidity;BMP_temperature;BMP_pressure;BME280_temperature;BME280_humidity;BME280_pressure;Samples;Min_cycle;Max_cycle;Signal;HPM_P1;HPM_P2
2021/07/05 00:02:16;;;;;;;0.85;0.40;;;21.30;66.90;;;;;;4327650;33;20063;-35
2021/07/05 00:04:43;;;;;;;0.22;0.22;;;21.30;66.60;;;;;;4327515;33;20562;-35
2021/07/05 00:07:09;;;;;;;0.20;0.20;;;21.30;66.60;;;;;;4327589;33;20106;-35
2021/07/05 00:09:36;;;;;;;0.20;0.20;;;21.20;66.90;;;;;;4327713;33;20141;-35
2021/07/05 00:12:04;;;;;;;0.73;0.50;;;21.20;67.10;;;;;;4329798;33;20985;-35
2021/07/05 00:14:31;;;;;;;0.43;0.30;;;21.20;66.90;;;;;;4342384;33;20225;-35
2021/07/05 00:16:57;;;;;;;0.60;0.37;;;21.20;67.00;;;;;;4342512;33;20511;-34
2021/07/05 00:19:23;;;;;;;0.45;0.43;;;21.10;67.10;;;;;;4312895;33;20094;-35
2021/07/05 00:21:50;;;;;;;0.65;0.57;;;21.20;67.30;;;;;;4315424;33;20460;-35
2021/07/05 00:24:17;;;;;;;2.15;0.80;;;21.10;67.10;;;;;;4339363;33;20075;-35
2021/07/05 00:26:43;;;;;;;3.12;1.77;;;21.20;67.10;;;;;;4341986;33;20071;-34
2021/07/05 00:29:10;;;;;;;3.00;1.85;;;21.10;67.30;;;;;;4329305;33;20055;-35
2021/07/05 00:31:36;;;;;;;1.62;1.00;;;21.10;67.00;;;;;;4356798;32;20500;-35
2021/07/05 00:34:03;;;;;;;3.65;1.27;;;21.10;67.10;;;;;;4356801;32;20066;-35
2021/07/05 00:36:29;;;;;;;1.65;1.10;;;21.10;67.10;;;;;;4341632;32;20199;-34
2021/07/05 00:38:56;;;;;;;1.40;0.60;;;21.10;67.10;;;;;;4341857;32;20195;-34
2021/07/05 00:41:22;;;;;;;1.85;0.70;;;21.10;67.10;;;;;;4329760;33;20143;-34
2021/07/05 00:43:48;;;;;;;0.50;0.50;;;21.00;67.00;;;;;;4341476;32;20077;-34
2021/07/05 00:46:15;;;;;;;1.48;0.70;;;21.00;67.00;;;;;;4329390;32;20142;-34
2021/07/05 00:48:42;;;;;;;0.45;0.45;;;21.00;67.10;;;;;;4341849;32;20181;-35
2021/07/05 00:51:08;;;;;;;0.40;0.40;;;21.00;67.30;;;;;;4365589;32;20066;-34
2021/07/05 00:53:35;;;;;;;0.47;0.30;;;21.00;67.40;;;;;;4359230;32;20159;-33
2021/07/05 00:56:01;;;;;;;0.30;0.30;;;20.90;67.40;;;;;;4359013;32;20171;-33
2021/07/05 00:58:28;;;;;;;1.23;0.40;;;20.80;67.40;;;;;;4352207;32;20123;-33
2021/07/05 01:00:54;;;;;;;0.50;0.30;;;20.80;67.80;;;;;;4358874;32;20069;-33
2021/07/05 01:03:20;;;;;;;0.57;0.40;;;20.70;67.60;;;;;;4334731;32;20054;-34
2021/07/05 01:05:47;;;;;;;0.47;0.30;;;20.80;67.60;;;;;;4356367;32;20537;-35
2021/07/05 01:08:13;;;;;;;0.60;0.30;;;20.70;67.50;;;;;;4358329;32;20062;-35
2021/07/05 01:10:40;;;;;;;0.93;0.40;;;20.70;67.70;;;;;;4357038;32;20096;-35
2021/07/05 01:13:06;;;;;;;2.58;0.40;;;20.70;67.80;;;;;;4381098;32;20109;-34
2021/07/05 01:15:33;;;;;;;0.47;0.30;;;20.60;67.80;;;;;;4389211;32;20062;-34
2021/07/05 01:18:03;;;;;;;0.47;0.30;;;20.60;68.00;;;;;;4386951;32;20160;-34
2021/07/05 01:20:32;;;;;;;2.15;0.40;;;20.50;68.20;;;;;;4388993;32;20057;-34
2021/07/05 01:22:59;;;;;;;1.15;0.40;;;20.50;68.10;;;;;;4387392;32;20066;-34
2021/07/05 01:25:27;;;;;;;0.55;0.30;;;20.50;68.20;;;;;;4388312;32;20534;-32
2021/07/05 01:27:54;;;;;;;1.42;0.50;;;20.50;68.10;;;;;;4355483;32;20062;-33
2021/07/05 01:30:21;;;;;;;1.10;0.43;;;20.50;68.40;;;;;;4355948;32;20067;-34
2021/07/05 01:32:50;;;;;;;0.30;0.30;;;20.50;68.50;;;;;;4343639;32;20067;-33
2021/07/05 01:35:16;;;;;;;1.20;0.40;;;20.50;68.20;;;;;;4299125;33;20146;-34
2021/07/05 01:37:43;;;;;;;0.75;0.40;;;20.50;67.90;;;;;;4299668;33;20479;-33
2021/07/05 01:40:15;;;;;;;0.70;0.40;;;20.40;67.80;;;;;;4298574;33;20146;-33
2021/07/05 01:42:43;;;;;;;0.62;0.40;;;20.40;68.00;;;;;;4311475;33;20148;-34
2021/07/05 01:45:10;;;;;;;0.70;0.45;;;20.40;68.00;;;;;;4311813;33;20067;-33
2021/07/05 01:47:37;;;;;;;0.90;0.45;;;20.40;68.20;;;;;;4311937;33;20082;-34
2021/07/05 01:50:04;;;;;;;0.70;0.50;;;20.50;68.20;;;;;;4311558;33;20078;-33
2021/07/05 01:52:31;;;;;;;0.50;0.32;;;20.50;68.00;;;;;;4299020;33;20060;-34
2021/07/05 01:54:57;;;;;;;0.47;0.20;;;20.50;68.00;;;;;;4299312;33;20071;-32
2021/07/05 01:57:27;;;;;;;0.80;0.30;;;20.50;67.90;;;;;;4311389;33;20079;-33
2021/07/05 01:59:55;;;;;;;0.82;0.52;;;20.40;67.80;;;;;;4351706;32;20070;-34
2021/07/05 02:02:22;;;;;;;1.10;0.50;;;20.40;67.90;;;;;;4343315;32;20154;-33
2021/07/05 02:04:49;;;;;;;0.80;0.43;;;20.40;67.90;;;;;;4355768;32;20090;-34
2021/07/05 02:07:16;;;;;;;0.40;0.37;;;20.40;68.00;;;;;;4330989;32;20159;-34
2021/07/05 02:09:43;;;;;;;0.40;0.30;;;20.50;68.00;;;;;;4355599;32;20093;-34
2021/07/05 02:12:10;;;;;;;0.28;0.20;;;20.50;67.70;;;;;;4355447;32;20078;-34
2021/07/05 02:14:38;;;;;;;0.57;0.40;;;20.50;68.10;;;;;;4374418;32;20609;-33
2021/07/05 02:17:07;;;;;;;0.40;0.40;;;20.50;67.70;;;;;;4400302;32;20522;-33
2021/07/05 02:19:33;;;;;;;0.62;0.52;;;20.50;67.60;;;;;;4400641;32;20093;-33
2021/07/05 02:22:00;;;;;;;1.65;0.30;;;20.50;67.60;;;;;;4400606;32;20112;-34
2021/07/05 02:24:27;;;;;;;0.30;0.20;;;20.50;67.90;;;;;;4400857;32;20095;-34
2021/07/05 02:26:54;;;;;;;0.35;0.22;;;20.50;67.70;;;;;;4400383;32;20050;-34
2021/07/05 02:29:20;;;;;;;0.70;0.28;;;20.50;67.70;;;;;;4387792;32;20069;-35
2021/07/05 02:31:47;;;;;;;0.75;0.60;;;20.50;67.70;;;;;;4400241;32;20074;-35
2021/07/05 02:34:13;;;;;;;0.62;0.50;;;20.40;67.30;;;;;;4400583;32;20511;-34
2021/07/05 02:36:39;;;;;;;1.05;0.50;;;20.40;67.70;;;;;;4370303;32;20085;-36
2021/07/05 02:39:06;;;;;;;0.75;0.50;;;20.50;68.00;;;;;;4370256;32;20089;-36
2021/07/05 02:41:33;;;;;;;1.10;0.60;;;20.40;67.70;;;;;;4340394;33;20515;-35
2021/07/05 02:44:00;;;;;;;4.78;0.85;;;20.40;67.80;;;;;;4340586;33;20097;-34
2021/07/05 02:46:26;;;;;;;2.25;0.65;;;20.40;68.00;;;;;;4340255;33;20097;-35
2021/07/05 02:48:53;;;;;;;1.98;0.52;;;20.40;67.60;;;;;;4340422;33;20073;-35
2021/07/05 02:51:19;;;;;;;0.57;0.35;;;20.50;67.70;;;;;;4340526;32;20235;-36
2021/07/05 02:53:46;;;;;;;1.58;1.12;;;20.50;67.60;;;;;;4331085;33;20145;-36
2021/07/05 02:56:13;;;;;;;0.70;0.60;;;20.60;67.30;;;;;;4330878;33;20094;-36
2021/07/05 02:58:40;;;;;;;0.80;0.55;;;20.70;67.30;;;;;;4331212;33;20572;-36
2021/07/05 03:01:10;;;;;;;2.58;1.23;;;20.80;67.00;;;;;;4330551;33;20144;-36
2021/07/05 03:03:36;;;;;;;1.52;0.90;;;20.90;66.80;;;;;;4343416;33;20071;-36
2021/07/05 03:06:03;;;;;;;1.52;0.80;;;20.90;66.50;;;;;;4343109;32;20347;-36
2021/07/05 03:08:30;;;;;;;1.30;1.00;;;20.90;66.00;;;;;;4330989;33;20078;-36
2021/07/05 03:10:56;;;;;;;1.05;0.60;;;21.00;65.60;;;;;;4343362;32;20150;-36
2021/07/05 03:13:22;;;;;;;0.80;0.47;;;20.90;65.80;;;;;;4358418;32;20071;-36
2021/07/05 03:15:51;;;;;;;1.67;0.85;;;20.90;65.80;;;;;;4371560;32;20117;-38
2021/07/05 03:18:17;;;;;;;0.20;0.20;;;21.00;66.10;;;;;;4360473;32;20069;-36
2021/07/05 03:20:46;;;;;;;0.60;0.37;;;21.20;65.80;;;;;;4346164;32;20494;-36
2021/07/05 03:23:15;;;;;;;0.82;0.65;;;21.40;65.70;;;;;;4359177;32;20066;-37
2021/07/05 03:25:41;;;;;;;1.00;0.73;;;21.50;64.90;;;;;;4360655;32;20150;-37
2021/07/05 03:28:10;;;;;;;3.92;1.08;;;21.60;64.30;;;;;;4358696;32;20070;-36
2021/07/05 03:30:38;;;;;;;0.47;0.37;;;21.60;63.30;;;;;;4358871;32;20466;-37
2021/07/05 03:33:05;;;;;;;0.80;0.55;;;21.70;62.90;;;;;;4358545;32;20182;-36
2021/07/05 03:35:31;;;;;;;1.58;0.60;;;21.80;62.80;;;;;;4359920;32;20062;-37
2021/07/05 03:37:58;;;;;;;2.72;0.60;;;21.80;62.60;;;;;;4358585;32;20574;-37
2021/07/05 03:40:30;;;;;;;1.55;0.70;;;21.90;62.50;;;;;;4359699;32;20063;-36
2021/07/05 03:42:57;;;;;;;1.50;0.88;;;21.90;62.40;;;;;;4358392;32;20062;-36
2021/07/05 03:45:28;;;;;;;0.90;0.55;;;21.90;62.30;;;;;;4359815;32;20513;-37
2021/07/05 03:47:55;;;;;;;0.77;0.45;;;21.90;62.30;;;;;;4372371;32;20058;-36
2021/07/05 03:50:22;;;;;;;0.50;0.30;;;21.90;62.30;;;;;;4372275;32;20546;-37
2021/07/05 03:52:48;;;;;;;1.30;0.40;;;21.90;61.40;;;;;;4372299;32;20503;-36
2021/07/05 03:55:20;;;;;;;0.55;0.40;;;21.90;61.60;;;;;;4372459;32;20088;-37
2021/07/05 03:57:47;;;;;;;0.77;0.52;;;21.90;60.90;;;;;;4359879;32;20085;-36
2021/07/05 04:00:20;;;;;;;0.50;0.50;;;22.00;61.10;;;;;;4372408;32;20079;-37
2021/07/05 04:02:47;;;;;;;0.50;0.40;;;22.00;60.50;;;;;;4358801;32;20059;-37
2021/07/05 04:05:14;;;;;;;0.62;0.50;;;22.10;60.20;;;;;;4371740;32;20518;-37
2021/07/05 04:07:42;;;;;;;0.80;0.57;;;22.10;59.70;;;;;;4372473;32;20104;-36
2021/07/05 04:10:09;;;;;;;1.10;0.68;;;22.10;59.80;;;;;;4372305;32;20274;-37
2021/07/05 04:12:36;;;;;;;3.65;0.98;;;22.20;60.20;;;;;;4381037;32;20656;-36
2021/07/05 04:15:05;;;;;;;1.25;0.30;;;22.20;60.10;;;;;;4362383;32;20084;-37
2021/07/05 04:17:31;;;;;;;0.43;0.40;;;22.20;59.70;;;;;;4374824;32;20134;-36
2021/07/05 04:19:57;;;;;;;0.80;0.50;;;22.20;59.70;;;;;;4387008;32;20552;-36
2021/07/05 04:22:24;;;;;;;0.43;0.43;;;22.20;59.60;;;;;;4387594;32;20069;-36
2021/07/05 04:24:51;;;;;;;5.22;0.70;;;22.20;59.90;;;;;;4387678;32;20144;-39
2021/07/05 04:27:17;;;;;;;2.25;0.50;;;22.10;59.20;;;;;;4389430;32;20545;-36
2021/07/05 04:29:44;;;;;;;1.95;0.90;;;22.00;59.90;;;;;;4356662;32;20063;-36
2021/07/05 04:32:10;;;;;;;1.83;0.93;;;22.00;60.70;;;;;;4344419;32;20149;-35
2021/07/05 04:34:37;;;;;;;2.22;1.20;;;22.00;59.90;;;;;;4356518;32;20619;-36
2021/07/05 04:37:04;;;;;;;0.93;0.60;;;22.00;60.00;;;;;;4344559;32;20112;-36
2021/07/05 04:39:30;;;;;;;0.62;0.40;;;22.10;60.40;;;;;;4356410;32;20136;-36
2021/07/05 04:41:57;;;;;;;1.08;0.68;;;22.00;59.90;;;;;;4356751;32;20104;-36
2021/07/05 04:44:23;;;;;;;1.35;1.00;;;22.00;60.00;;;;;;4357014;32;20090;-37
2021/07/05 04:46:51;;;;;;;2.55;1.90;;;22.10;60.20;;;;;;4356588;32;20231;-36
2021/07/05 04:49:18;;;;;;;4.03;1.10;;;22.20;59.70;;;;;;4356999;32;20150;-35
2021/07/05 04:51:46;;;;;;;1.90;1.62;;;22.20;59.20;;;;;;4356514;32;20152;-36
2021/07/05 04:54:12;;;;;;;2.22;1.12;;;22.30;59.10;;;;;;4345172;32;20063;-37
2021/07/05 04:56:39;;;;;;;0.55;0.52;;;22.40;59.30;;;;;;4345315;32;20472;-37
2021/07/05 04:59:06;;;;;;;5.65;0.68;;;22.50;58.80;;;;;;4343723;32;20136;-36
2021/07/05 05:01:33;;;;;;;2.47;0.30;;;22.50;58.80;;;;;;4329353;32;20117;-36
2021/07/05 05:04:00;;;;;;;0.77;0.40;;;22.60;58.40;;;;;;4329370;32;20073;-35
2021/07/05 05:06:27;;;;;;;6.47;1.77;;;22.70;58.30;;;;;;4344867;32;20139;-36
2021/07/05 05:08:54;;;;;;;2.30;1.12;;;22.90;58.20;;;;;;4358392;32;20051;-37
2021/07/05 05:11:20;;;;;;;3.92;0.70;;;23.20;57.60;;;;;;4357130;32;20096;-36
2021/07/05 05:13:47;;;;;;;0.32;0.30;;;23.20;56.00;;;;;;4371528;32;20074;-36
2021/07/05 05:16:14;;;;;;;2.70;1.00;;;23.40;55.80;;;;;;4373462;32;20062;-36
2021/07/05 05:18:41;;;;;;;7.87;0.85;;;23.50;55.30;;;;;;4373421;32;20081;-36
2021/07/05 05:21:08;;;;;;;0.65;0.50;;;23.60;55.30;;;;;;4373815;32;20068;-37
2021/07/05 05:23:34;;;;;;;1.02;0.60;;;23.70;54.70;;;;;;4373277;32;20085;-37
2021/07/05 05:26:01;;;;;;;2.05;1.40;;;23.70;55.00;;;;;;4371789;32;20065;-36
2021/07/05 05:28:27;;;;;;;3.03;1.23;;;23.80;54.90;;;;;;4359312;32;20066;-36
2021/07/05 05:30:54;;;;;;;1.50;0.90;;;23.90;54.60;;;;;;4371647;32;20086;-37
2021/07/05 05:33:20;;;;;;;1.52;0.80;;;24.10;54.30;;;;;;4373684;32;20096;-37
2021/07/05 05:35:47;;;;;;;0.40;0.30;;;24.30;53.90;;;;;;4373810;32;20518;-36
2021/07/05 05:38:13;;;;;;;1.60;0.73;;;24.20;52.70;;;;;;4371846;32;20069;-35
2021/07/05 05:40:40;;;;;;;1.67;1.27;;;24.20;52.80;;;;;;4373126;32;20067;-35
2021/07/05 05:43:08;;;;;;;0.98;0.65;;;24.20;52.80;;;;;;4371659;32;20054;-36
2021/07/05 05:45:36;;;;;;;3.62;1.00;;;24.20;53.30;;;;;;4372743;32;20511;-36
2021/07/05 05:48:03;;;;;;;5.07;2.03;;;24.20;52.70;;;;;;4371909;32;20093;-36
2021/07/05 05:50:30;;;;;;;0.95;0.70;;;24.20;52.70;;;;;;4373095;32;20130;-35
2021/07/05 05:52:56;;;;;;;0.68;0.35;;;24.30;52.60;;;;;;4372586;32;20530;-36
2021/07/05 05:55:23;;;;;;;1.05;0.45;;;24.20;52.70;;;;;;4372795;32;20153;-36
2021/07/05 05:57:50;;;;;;;0.98;0.70;;;24.30;53.10;;;;;;4364517;32;20080;-35
2021/07/05 06:00:21;;;;;;;1.73;0.62;;;24.40;53.10;;;;;;4374068;32;20062;-35
2021/07/05 06:02:49;;;;;;;1.33;0.60;;;24.50;52.60;;;;;;4386722;32;20593;-35
2021/07/05 06:05:16;;;;;;;1.25;0.90;;;24.50;51.80;;;;;;4386354;32;20073;-35
2021/07/05 06:07:47;;;;;;;1.08;0.32;;;24.50;52.10;;;;;;4374107;32;20068;-35
2021/07/05 06:10:14;;;;;;;2.15;1.00;;;24.50;52.20;;;;;;4388242;32;20085;-35
2021/07/05 06:12:41;;;;;;;4.43;0.60;;;24.60;52.20;;;;;;4387907;32;20162;-36
2021/07/05 06:15:08;;;;;;;1.87;0.50;;;24.70;52.10;;;;;;4388771;32;20042;-36
2021/07/05 06:17:35;;;;;;;0.47;0.40;;;24.80;52.00;;;;;;4386253;32;20181;-36
2021/07/05 06:20:04;;;;;;;0.50;0.28;;;24.90;51.50;;;;;;4386277;32;20522;-36
2021/07/05 06:22:38;;;;;;;1.12;0.80;;;25.00;51.10;;;;;;4386113;32;20078;-36
2021/07/05 06:25:05;;;;;;;1.02;0.50;;;25.10;50.90;;;;;;4374323;32;20072;-36
2021/07/05 06:27:32;;;;;;;0.88;0.60;;;25.10;50.90;;;;;;4376825;32;20578;-36
2021/07/05 06:29:58;;;;;;;2.15;1.30;;;25.20;50.70;;;;;;4390220;32;20060;-36
2021/07/05 06:32:25;;;;;;;0.77;0.57;;;25.20;50.60;;;;;;4377842;32;20069;-36
2021/07/05 06:34:51;;;;;;;0.75;0.47;;;25.20;50.60;;;;;;4390164;32;20541;-36
2021/07/05 06:37:18;;;;;;;1.55;1.10;;;25.30;50.50;;;;;;4389889;32;20529;-36
2021/07/05 06:39:44;;;;;;;1.52;0.77;;;25.30;49.80;;;;;;4350103;32;20070;-36
2021/07/05 06:42:11;;;;;;;1.52;1.00;;;25.40;50.00;;;;;;4349993;32;20073;-35
2021/07/05 06:44:37;;;;;;;0.93;0.82;;;25.30;49.30;;;;;;4362747;32;20584;-36
2021/07/05 06:47:04;;;;;;;3.30;0.93;;;25.30;49.70;;;;;;4375190;32;20147;-37
2021/07/05 06:49:30;;;;;;;2.33;0.90;;;25.30;50.10;;;;;;4375820;32;20109;-37
2021/07/05 06:51:57;;;;;;;1.55;1.02;;;25.40;50.10;;;;;;4377353;32;20094;-36
2021/07/05 06:54:23;;;;;;;2.62;1.00;;;25.50;49.70;;;;;;4365323;32;20066;-37
2021/07/05 06:56:50;;;;;;;3.37;1.00;;;25.50;48.70;;;;;;4389731;32;20517;-37
2021/07/05 06:59:16;;;;;;;0.37;0.32;;;25.50;49.00;;;;;;4363370;32;20096;-36
2021/07/05 07:01:44;;;;;;;4.35;0.75;;;25.50;48.80;;;;;;4374962;32;20481;-36
2021/07/05 07:04:11;;;;;;;3.45;0.93;;;25.50;49.00;;;;;;4362425;32;20074;-36
2021/07/05 07:06:38;;;;;;;1.23;0.93;;;25.70;49.60;;;;;;4374858;32;20481;-36
2021/07/05 07:09:05;;;;;;;2.47;0.80;;;25.70;48.50;;;;;;4362286;32;20478;-36
2021/07/05 07:11:31;;;;;;;0.70;0.60;;;25.70;48.40;;;;;;4374497;32;20081;-36
2021/07/05 07:13:58;;;;;;;0.30;0.30;;;25.80;48.30;;;;;;4362836;32;20215;-37
2021/07/05 07:16:28;;;;;;;2.85;0.82;;;25.70;48.40;;;;;;4375549;32;20058;-37
2021/07/05 07:21:24;;;;;;;0.65;0.25;;;25.80;48.00;;;;;;4377376;32;20077;-36
2021/07/05 07:23:51;;;;;;;0.20;0.20;;;25.70;48.30;;;;;;4377353;32;20077;-36
2021/07/05 07:26:19;;;;;;;1.75;1.20;;;25.70;48.50;;;;;;4375695;32;20081;-36
2021/07/05 07:28:50;;;;;;;0.75;0.65;;;25.70;48.80;;;;;;4376166;32;20077;-35
2021/07/05 07:31:17;;;;;;;7.12;1.10;;;25.60;49.10;;;;;;4377224;32;20086;-36
2021/07/05 07:33:44;;;;;;;1.45;1.08;;;25.40;49.40;;;;;;4362719;32;20066;-35
2021/07/05 07:36:10;;;;;;;1.92;1.67;;;25.20;50.00;;;;;;4375591;32;20102;-35
2021/07/05 07:38:42;;;;;;;2.08;1.55;;;24.90;50.70;;;;;;4374147;32;20585;-35
2021/07/05 07:41:09;;;;;;;2.45;1.62;;;24.70;51.30;;;;;;4375167;32;20098;-37
2021/07/05 07:43:35;;;;;;;2.70;1.85;;;24.60;51.50;;;;;;4374558;32;20090;-36
2021/07/05 07:46:02;;;;;;;3.97;2.25;;;24.70;51.80;;;;;;4374517;32;20073;-37
2021/07/05 07:48:28;;;;;;;2.67;0.85;;;24.70;52.00;;;;;;4373486;32;20073;-37
2021/07/05 07:50:55;;;;;;;7.10;1.98;;;24.90;51.30;;;;;;4360584;32;20136;-37
2021/07/05 07:53:21;;;;;;;4.37;2.35;;;25.00;50.80;;;;;;4372930;32;20058;-37
2021/07/05 07:55:48;;;;;;;4.82;4.32;;;25.20;50.90;;;;;;4373081;32;20070;-36
2021/07/05 07:58:14;;;;;;;5.70;2.37;;;25.40;51.00;;;;;;4374722;32;20174;-37
2021/07/05 08:00:41;;;;;;;5.18;3.10;;;25.50;49.90;;;;;;4373207;32;20146;-36
2021/07/05 08:03:09;;;;;;;3.10;1.70;;;25.40;49.80;;;;;;4372777;32;20061;-37
2021/07/05 08:05:36;;;;;;;3.17;1.42;;;25.30;50.20;;;;;;4374007;32;20058;-36
2021/07/05 08:08:03;;;;;;;2.85;1.58;;;25.40;50.30;;;;;;4374296;32;20639;-37
2021/07/05 08:10:31;;;;;;;2.22;1.40;;;25.50;49.90;;;;;;4374526;32;20155;-36
2021/07/05 08:12:58;;;;;;;2.65;1.37;;;25.60;49.80;;;;;;4382455;32;20093;-38
2021/07/05 08:15:24;;;;;;;4.28;2.40;;;25.70;49.40;;;;;;4389460;32;20061;-36
2021/07/05 08:17:51;;;;;;;5.53;2.75;;;25.70;49.00;;;;;;4389038;32;20188;-37
2021/07/05 08:20:21;;;;;;;3.90;2.42;;;25.70;48.70;;;;;;4389582;32;20070;-39
2021/07/05 08:22:49;;;;;;;2.47;1.60;;;25.70;48.70;;;;;;4389139;32;20092;-36
2021/07/05 08:25:16;;;;;;;4.32;2.92;;;25.60;48.80;;;;;;4400274;32;20069;-37
2021/07/05 08:27:42;;;;;;;2.10;1.80;;;25.60;49.00;;;;;;4386248;32;20058;-37
2021/07/05 08:30:09;;;;;;;0.95;0.75;;;25.50;49.30;;;;;;4386658;32;20069;-36
2021/07/05 08:32:36;;;;;;;2.83;1.73;;;25.60;49.30;;;;;;4386723;32;20085;-36
2021/07/05 08:35:05;;;;;;;1.55;1.25;;;25.60;49.00;;;;;;4386322;32;20551;-38
2021/07/05 08:37:31;;;;;;;3.75;1.25;;;25.70;49.20;;;;;;4386639;32;20137;-37
2021/07/05 08:39:58;;;;;;;4.93;1.95;;;25.70;49.10;;;;;;4374315;32;20065;-36
2021/07/05 08:42:26;;;;;;;2.72;1.90;;;25.60;49.00;;;;;;4373901;32;20068;-36
2021/07/05 08:44:53;;;;;;;2.00;0.93;;;25.50;49.40;;;;;;4374341;32;20497;-36
2021/07/05 08:47:20;;;;;;;4.70;2.17;;;25.50;49.20;;;;;;4373582;32;20335;-36
2021/07/05 08:49:48;;;;;;;2.55;1.87;;;25.50;49.00;;;;;;4373358;32;20062;-36
2021/07/05 08:52:14;;;;;;;3.75;1.00;;;25.40;49.20;;;;;;4373799;32;20065;-37
2021/07/05 08:54:41;;;;;;;3.00;2.55;;;25.40;49.40;;;;;;4386508;32;20069;-36
2021/07/05 08:57:26;;;;;;;2.12;1.33;;;25.40;49.30;;;;;;4373031;32;20078;-38
2021/07/05 08:59:53;;;;;;;;;;;25.30;49.30;;;;;;4357430;32;20067;-35
2021/07/05 09:02:21;;;;;;;4.75;2.50;;;25.30;49.50;;;;;;4370047;32;19972;-37
2021/07/05 09:04:49;;;;;;;4.20;2.08;;;25.20;49.40;;;;;;4357404;32;20065;-36
2021/07/05 09:07:16;;;;;;;1.73;1.27;;;25.10;49.90;;;;;;4358485;32;20505;-36
2021/07/05 09:10:06;;;;;;;2.20;1.42;;;25.00;50.00;;;;;;4358673;32;20470;-36
2021/07/05 09:12:33;;;;;;;2.22;1.20;;;25.00;50.00;;;;;;4364147;32;20089;-38
2021/07/05 09:15:13;;;;;;;3.22;2.37;;;25.10;49.90;;;;;;4372627;32;20064;-37
2021/07/05 09:17:42;;;;;;;2.45;2.15;;;25.20;49.50;;;;;;4373498;32;20061;-36
2021/07/05 09:20:20;;;;;;;4.40;2.17;;;25.40;49.20;;;;;;4371739;32;20070;-37
2021/07/05 09:23:12;;;;;;;1.10;0.88;;;25.40;49.10;;;;;;4359662;32;20066;-37
2021/07/05 09:25:47;;;;;;;6.68;5.72;;;25.40;49.20;;;;;;4371458;32;20073;-36
2021/07/05 09:28:16;;;;;;;3.65;2.50;;;25.20;49.20;;;;;;4371706;32;20070;-37
2021/07/05 09:30:48;;;;;;;3.97;3.25;;;25.20;49.40;;;;;;4371645;32;20618;-37
2021/07/05 09:33:20;;;;;;;5.78;3.55;;;25.20;49.90;;;;;;4373011;32;20062;-36
2021/07/05 09:35:52;;;;;;;3.70;3.40;;;25.20;49.70;;;;;;4359641;32;20061;-36
2021/07/05 09:38:37;;;;;;;5.15;4.40;;;25.40;49.70;;;;;;4360072;32;20065;-38
2021/07/05 09:41:29;;;;;;;;;;;25.70;49.30;;;;;;4371918;32;20058;-36
2021/07/05 09:44:01;;;;;;;2.95;2.42;;;25.70;48.80;;;;;;4371866;32;20405;-36
2021/07/05 09:46:53;;;;;;;8.50;4.25;;;26.00;48.40;;;;;;4371687;32;20077;-37
2021/07/05 09:49:28;;;;;;;4.57;2.67;;;26.20;48.10;;;;;;4373181;32;20070;-37
2021/07/05 09:52:10;;;;;;;2.70;2.45;;;26.60;47.70;;;;;;4373295;32;20559;-37
2021/07/05 09:54:39;;;;;;;4.47;3.30;;;26.80;46.30;;;;;;4385787;32;20161;-37
2021/07/05 09:57:24;;;;;;;2.35;1.58;;;26.80;45.70;;;;;;4385741;32;20254;-37
2021/07/05 10:00:16;;;;;;;1.35;1.12;;;26.80;46.10;;;;;;4375278;32;20160;-37
2021/07/05 10:03:05;;;;;;;4.87;3.90;;;26.70;46.20;;;;;;4354786;32;20080;-37
2021/07/05 10:05:37;;;;;;;3.12;2.30;;;26.80;45.10;;;;;;4356007;32;20066;-37
2021/07/05 10:08:08;;;;;;;4.75;3.35;;;26.80;45.10;;;;;;4355668;32;20074;-36
2021/07/05 10:10:46;;;;;;;2.67;2.47;;;26.90;45.00;;;;;;4343608;32;20090;-38
2021/07/05 10:13:19;;;;;;;1.87;1.42;;;27.10;45.00;;;;;;4342604;32;20066;-37
2021/07/05 10:15:46;;;;;;;3.08;1.87;;;27.10;44.50;;;;;;4340070;33;20046;-37
2021/07/05 10:18:13;;;;;;;2.00;1.48;;;27.20;44.60;;;;;;4327988;33;20078;-36
2021/07/05 10:20:44;;;;;;;1.80;1.33;;;27.30;44.40;;;;;;4327905;33;20081;-37
2021/07/05 10:23:16;;;;;;;4.03;3.30;;;27.50;44.30;;;;;;4340881;33;20066;-36
2021/07/05 10:25:49;;;;;;;3.80;1.17;;;27.70;44.00;;;;;;4328923;33;20137;-37
2021/07/05 10:28:16;;;;;;;1.30;1.05;;;27.80;43.30;;;;;;4317545;33;20075;-37
2021/07/05 10:30:43;;;;;;;3.20;2.40;;;27.80;43.20;;;;;;4340886;33;20078;-38
2021/07/05 10:33:10;;;;;;;2.10;1.33;;;27.80;42.80;;;;;;4348292;32;20170;-36
2021/07/05 10:35:44;;;;;;;1.20;1.10;;;27.90;42.90;;;;;;4345176;32;20467;-39
2021/07/05 10:38:34;;;;;;;0.90;0.80;;;28.00;43.00;;;;;;4357673;32;20094;-36
2021/07/05 10:41:13;;;;;;;1.87;0.77;;;28.20;42.50;;;;;;4370528;32;20142;-36
2021/07/05 10:43:54;;;;;;;1.02;0.75;;;28.10;41.40;;;;;;4357599;32;20133;-37
2021/07/05 10:46:53;;;;;;;0.80;0.73;;;28.00;41.50;;;;;;4374859;32;20101;-38
2021/07/05 10:49:28;;;;;;;3.47;0.70;;;28.00;41.80;;;;;;4385253;32;20540;-37
2021/07/05 10:52:16;;;;;;;1.73;0.77;;;28.00;41.70;;;;;;4385141;32;20148;-37
2021/07/05 10:54:51;;;;;;;0.65;0.50;;;28.00;41.40;;;;;;4385301;32;20493;-36
2021/07/05 10:57:35;;;;;;;0.65;0.40;;;28.30;40.80;;;;;;4381018;32;20081;-38
2021/07/05 11:00:16;;;;;;;1.33;0.85;;;28.60;40.90;;;;;;4355074;32;20692;-37
2021/07/05 11:02:55;;;;;;;0.60;0.60;;;29.00;39.90;;;;;;4355014;32;20066;-38
2021/07/05 11:05:49;;;;;;;1.08;0.70;;;29.20;38.80;;;;;;4354953;32;20093;-37
2021/07/05 11:08:20;;;;;;;0.80;0.50;;;29.50;38.80;;;;;;4354267;32;20088;-37
2021/07/05 11:10:47;;;;;;;3.15;0.90;;;29.50;37.80;;;;;;4354851;32;20236;-36
2021/07/05 11:13:13;;;;;;;3.53;0.60;;;29.60;37.30;;;;;;4377776;32;20531;-38
2021/07/05 11:15:53;;;;;;;1.62;0.40;;;29.70;37.20;;;;;;4362857;32;20568;-38
2021/07/05 11:21:10;;;;;;;0.90;0.32;;;29.70;36.30;;;;;;4388785;32;20105;-38
2021/07/05 11:24:03;;;;;;;0.50;0.50;;;29.70;36.00;;;;;;4388503;32;20073;-38
2021/07/05 11:26:38;;;;;;;1.83;0.35;;;29.60;35.80;;;;;;4384381;32;20053;-37
2021/07/05 11:29:17;;;;;;;0.88;0.50;;;29.70;36.20;;;;;;4375866;32;20063;-38
2021/07/05 11:31:50;;;;;;;5.20;0.88;;;29.90;36.40;;;;;;4390065;32;20077;-36
2021/07/05 11:34:35;;;;;;;1.17;0.60;;;30.20;35.40;;;;;;4390033;32;20499;-37
2021/07/05 11:37:11;;;;;;;0.52;0.50;;;30.20;34.10;;;;;;4390097;32;20097;-38
2021/07/05 11:39:48;;;;;;;0.50;0.40;;;30.30;34.20;;;;;;4390076;32;20049;-38
2021/07/05 11:42:37;;;;;;;3.03;0.55;;;30.20;34.10;;;;;;4388608;32;20061;-37
2021/07/05 11:45:05;;;;;;;0.62;0.40;;;30.40;33.80;;;;;;4379033;32;20061;-37
2021/07/05 11:47:37;;;;;;;1.08;0.55;;;30.60;33.90;;;;;;4389505;32;20096;-36
2021/07/05 11:50:24;;;;;;;1.37;0.57;;;30.80;33.60;;;;;;4389598;32;20537;-36
2021/07/05 11:52:53;;;;;;;1.00;0.57;;;30.70;32.70;;;;;;4389947;32;20606;-37
2021/07/05 11:55:30;;;;;;;1.67;1.00;;;30.60;33.10;;;;;;4388316;32;20065;-36
2021/07/05 11:58:01;;;;;;;5.60;0.40;;;30.60;33.30;;;;;;4383788;32;20054;-36
2021/07/05 12:00:31;;;;;;;0.90;0.40;;;30.60;33.20;;;;;;4373065;32;20050;-37
2021/07/05 12:03:12;;;;;;;0.50;0.43;;;30.60;32.60;;;;;;4374713;32;20085;-37
2021/07/05 12:05:44;;;;;;;0.90;0.60;;;30.40;32.10;;;;;;4372862;32;20139;-41
2021/07/05 12:08:15;;;;;;;0.80;0.50;;;30.30;31.90;;;;;;4374701;32;20457;-36
2021/07/05 12:10:44;;;;;;;1.23;0.60;;;30.10;31.70;;;;;;4373036;32;20151;-36
2021/07/05 12:13:24;;;;;;;1.25;0.43;;;30.10;32.30;;;;;;4385057;32;20070;-37
2021/07/05 12:16:00;;;;;;;2.03;0.40;;;29.90;31.90;;;;;;4389370;32;20078;-38
2021/07/05 12:18:27;;;;;;;1.00;0.43;;;30.00;32.30;;;;;;4388016;32;20066;-38
2021/07/05 12:21:30;;;;;;;0.55;0.30;;;30.00;32.10;;;;;;4389730;32;20062;-38
2021/07/05 12:24:09;;;;;;;3.05;0.70;;;30.00;32.00;;;;;;4387215;32;20128;-37
2021/07/05 12:26:45;;;;;;;3.97;0.55;;;30.00;32.00;;;;;;4388019;32;20157;-35
2021/07/05 12:29:29;;;;;;;0.47;0.40;;;30.00;32.10;;;;;;4387859;32;20188;-36
2021/07/05 12:32:04;;;;;;;0.85;0.50;;;30.10;32.30;;;;;;4389269;32;20073;-37
2021/07/05 12:34:37;;;;;;;1.98;0.70;;;30.20;32.40;;;;;;4388755;32;20156;-37
2021/07/05 12:37:05;;;;;;;0.70;0.50;;;30.20;32.00;;;;;;4389454;32;20053;-37
2021/07/05 12:39:45;;;;;;;1.48;0.80;;;30.20;32.30;;;;;;4387514;32;20131;-37
2021/07/05 12:42:50;;;;;;;3.22;0.30;;;30.40;32.10;;;;;;4389534;32;20134;-36
2021/07/05 12:45:28;;;;;;;0.88;0.68;;;30.50;31.20;;;;;;4341498;32;20075;-38
2021/07/05 12:48:40;;;;;;;1.62;0.60;;;30.50;31.10;;;;;;4317368;33;20075;-36
2021/07/05 12:51:06;;;;;;;3.15;0.57;;;30.50;31.10;;;;;;4338092;33;20093;-37
2021/07/05 12:53:36;;;;;;;0.95;0.40;;;30.40;31.00;;;;;;4329227;33;20066;-38
2021/07/05 12:56:21;;;;;;;1.05;0.68;;;30.30;31.30;;;;;;4341355;33;20078;-38
2021/07/05 12:59:05;;;;;;;2.15;0.40;;;30.20;31.00;;;;;;4341512;33;20535;-36
2021/07/05 13:01:32;;;;;;;2.10;0.82;;;30.30;31.70;;;;;;4316871;33;20574;-36
2021/07/05 13:04:10;;;;;;;0.60;0.50;;;30.50;31.60;;;;;;4341310;33;20080;-39
2021/07/05 13:07:09;;;;;;;0.55;0.40;;;30.80;31.30;;;;;;4341395;32;20106;-37
2021/07/05 13:09:37;;;;;;;0.88;0.50;;;30.90;30.90;;;;;;4330074;33;20143;-37